sensor_id;sensor_type;location;lat;lon;timestamp;temperature;humidity
72380;SHT30;60354;47.798;12.472;2022-09-01T00:00:45;14.71;90.17
72380;SHT30;60354;47.798;12.472;2022-09-01T00:03:14;14.73;90.18
72380;SHT30;60354;47.798;12.472;2022-09-01T00:05:40;14.80;89.89
72380;SHT30;60354;47.798;12.472;2022-09-01T00:08:05;14.78;89.98
72380;SHT30;60354;47.798;12.472;2022-09-01T00:10:31;14.77;89.71
72380;SHT30;60354;47.798;12.472;2022-09-01T00:12:57;14.83;89.69
72380;SHT30;60354;47.798;12.472;2022-09-01T00:15:23;14.91;89.54
72380;SHT30;60354;47.798;12.472;2022-09-01T00:17:49;14.94;89.58
72380;SHT30;60354;47.798;12.472;2022-09-01T00:20:14;14.98;89.36
72380;SHT30;60354;47.798;12.472;2022-09-01T00:22:40;15.02;89.57
72380;SHT30;60354;47.798;12.472;2022-09-01T00:25:06;15.07;89.41
72380;SHT30;60354;47.798;12.472;2022-09-01T00:27:32;15.12;89.24
72380;SHT30;60354;47.798;12.472;2022-09-01T00:29:58;15.15;88.89
72380;SHT30;60354;47.798;12.472;2022-09-01T00:32:24;15.12;88.57
72380;SHT30;60354;47.798;12.472;2022-09-01T00:34:50;15.18;88.27
72380;SHT30;60354;47.798;12.472;2022-09-01T00:37:15;15.18;88.18
72380;SHT30;60354;47.798;12.472;2022-09-01T00:39:41;15.19;88.65
72380;SHT30;60354;47.798;12.472;2022-09-01T00:42:06;15.18;88.01
72380;SHT30;60354;47.798;12.472;2022-09-01T00:44:32;15.08;88.05
72380;SHT30;60354;47.798;12.472;2022-09-01T00:46:58;15.09;88.06
72380;SHT30;60354;47.798;12.472;2022-09-01T00:49:45;15.05;87.93
72380;SHT30;60354;47.798;12.472;2022-09-01T00:52:18;14.99;88.19
72380;SHT30;60354;47.798;12.472;2022-09-01T00:54:47;14.99;88.23
72380;SHT30;60354;47.798;12.472;2022-09-01T00:57:14;14.92;88.31
72380;SHT30;60354;47.798;12.472;2022-09-01T00:59:49;14.89;88.41
72380;SHT30;60354;47.798;12.472;2022-09-01T01:02:17;14.85;88.47
72380;SHT30;60354;47.798;12.472;2022-09-01T01:04:42;14.88;88.31
72380;SHT30;60354;47.798;12.472;2022-09-01T01:07:09;14.88;88.16
72380;SHT30;60354;47.798;12.472;2022-09-01T01:09:39;14.84;88.55
72380;SHT30;60354;47.798;12.472;2022-09-01T01:12:06;14.83;88.48
72380;SHT30;60354;47.798;12.472;2022-09-01T01:14:38;14.81;88.82
72380;SHT30;60354;47.798;12.472;2022-09-01T01:17:04;14.84;88.48
72380;SHT30;60354;47.798;12.472;2022-09-01T01:19:40;14.81;88.76
72380;SHT30;60354;47.798;12.472;2022-09-01T01:26:00;14.87;87.97
72380;SHT30;60354;47.798;12.472;2022-09-01T01:28:33;14.74;88.42
72380;SHT30;60354;47.798;12.472;2022-09-01T01:31:05;14.74;88.29
72380;SHT30;60354;47.798;12.472;2022-09-01T01:33:42;14.73;88.29
72380;SHT30;60354;47.798;12.472;2022-09-01T01:36:30;14.71;88.24
72380;SHT30;60354;47.798;12.472;2022-09-01T01:39:06;14.71;87.60
72380;SHT30;60354;47.798;12.472;2022-09-01T01:41:34;14.70;87.42
72380;SHT30;60354;47.798;12.472;2022-09-01T01:44:01;14.60;87.50
72380;SHT30;60354;47.798;12.472;2022-09-01T01:46:34;14.60;87.70
72380;SHT30;60354;47.798;12.472;2022-09-01T01:49:00;14.56;87.37
72380;SHT30;60354;47.798;12.472;2022-09-01T01:51:30;14.54;87.51
72380;SHT30;60354;47.798;12.472;2022-09-01T01:53:58;14.50;87.35
72380;SHT30;60354;47.798;12.472;2022-09-01T01:56:31;14.40;87.37
72380;SHT30;60354;47.798;12.472;2022-09-01T01:58:59;14.30;87.84
72380;SHT30;60354;47.798;12.472;2022-09-01T02:01:27;14.33;87.74
72380;SHT30;60354;47.798;12.472;2022-09-01T02:03:57;14.25;87.88
72380;SHT30;60354;47.798;12.472;2022-09-01T02:06:24;14.25;87.47
72380;SHT30;60354;47.798;12.472;2022-09-01T02:08:54;14.30;87.59
72380;SHT30;60354;47.798;12.472;2022-09-01T02:11:24;14.27;87.69
72380;SHT30;60354;47.798;12.472;2022-09-01T02:13:52;14.27;87.36
72380;SHT30;60354;47.798;12.472;2022-09-01T02:16:28;14.29;87.68
72380;SHT30;60354;47.798;12.472;2022-09-01T02:18:54;14.22;87.84
72380;SHT30;60354;47.798;12.472;2022-09-01T02:21:22;14.23;87.51
72380;SHT30;60354;47.798;12.472;2022-09-01T02:23:59;14.27;87.27
72380;SHT30;60354;47.798;12.472;2022-09-01T02:26:34;14.27;87.57
72380;SHT30;60354;47.798;12.472;2022-09-01T02:29:06;14.25;87.70
72380;SHT30;60354;47.798;12.472;2022-09-01T02:31:37;14.26;87.61
72380;SHT30;60354;47.798;12.472;2022-09-01T02:34:07;14.22;87.66
72380;SHT30;60354;47.798;12.472;2022-09-01T02:36:36;14.32;87.58
72380;SHT30;60354;47.798;12.472;2022-09-01T02:39:10;14.29;87.81
72380;SHT30;60354;47.798;12.472;2022-09-01T02:41:36;14.30;87.92
72380;SHT30;60354;47.798;12.472;2022-09-01T02:44:04;14.32;87.52
72380;SHT30;60354;47.798;12.472;2022-09-01T02:46:38;14.38;87.46
72380;SHT30;60354;47.798;12.472;2022-09-01T02:49:19;14.33;87.24
72380;SHT30;60354;47.798;12.472;2022-09-01T02:51:50;14.29;87.11
72380;SHT30;60354;47.798;12.472;2022-09-01T02:54:22;14.16;87.41
72380;SHT30;60354;47.798;12.472;2022-09-01T02:56:51;14.22;87.09
72380;SHT30;60354;47.798;12.472;2022-09-01T02:59:24;14.12;87.57
72380;SHT30;60354;47.798;12.472;2022-09-01T03:01:52;14.08;87.70
72380;SHT30;60354;47.798;12.472;2022-09-01T03:04:19;14.10;87.65
72380;SHT30;60354;47.798;12.472;2022-09-01T03:06:47;14.10;87.80
72380;SHT30;60354;47.798;12.472;2022-09-01T03:09:15;14.12;87.68
72380;SHT30;60354;47.798;12.472;2022-09-01T03:11:44;14.06;88.12
72380;SHT30;60354;47.798;12.472;2022-09-01T03:14:10;14.09;87.78
72380;SHT30;60354;47.798;12.472;2022-09-01T03:16:37;14.05;87.44
72380;SHT30;60354;47.798;12.472;2022-09-01T03:19:05;14.04;87.42
72380;SHT30;60354;47.798;12.472;2022-09-01T03:21:37;14.02;87.65
72380;SHT30;60354;47.798;12.472;2022-09-01T03:24:06;13.99;88.28
72380;SHT30;60354;47.798;12.472;2022-09-01T03:26:33;13.99;88.08
72380;SHT30;60354;47.798;12.472;2022-09-01T03:28:59;14.01;88.38
72380;SHT30;60354;47.798;12.472;2022-09-01T03:31:26;13.95;88.39
72380;SHT30;60354;47.798;12.472;2022-09-01T03:33:54;13.86;88.87
72380;SHT30;60354;47.798;12.472;2022-09-01T03:36:26;13.79;88.90
72380;SHT30;60354;47.798;12.472;2022-09-01T03:38:54;13.74;89.23
72380;SHT30;60354;47.798;12.472;2022-09-01T03:41:24;13.76;89.61
72380;SHT30;60354;47.798;12.472;2022-09-01T03:43:51;13.79;89.50
72380;SHT30;60354;47.798;12.472;2022-09-01T03:46:21;13.82;89.21
72380;SHT30;60354;47.798;12.472;2022-09-01T03:48:51;13.89;89.09
72380;SHT30;60354;47.798;12.472;2022-09-01T03:51:18;13.95;89.79
72380;SHT30;60354;47.798;12.472;2022-09-01T03:53:45;13.95;89.58
72380;SHT30;60354;47.798;12.472;2022-09-01T03:56:11;13.98;89.51
72380;SHT30;60354;47.798;12.472;2022-09-01T03:58:40;14.01;89.01
72380;SHT30;60354;47.798;12.472;2022-09-01T04:01:08;14.13;88.37
72380;SHT30;60354;47.798;12.472;2022-09-01T04:03:38;14.05;88.64
72380;SHT30;60354;47.798;12.472;2022-09-01T04:06:07;14.13;88.45
72380;SHT30;60354;47.798;12.472;2022-09-01T04:08:34;13.98;88.16
72380;SHT30;60354;47.798;12.472;2022-09-01T04:11:03;13.89;88.91
72380;SHT30;60354;47.798;12.472;2022-09-01T04:13:36;13.89;89.09
72380;SHT30;60354;47.798;12.472;2022-09-01T04:16:03;13.83;89.31
72380;SHT30;60354;47.798;12.472;2022-09-01T04:18:35;13.85;89.08
72380;SHT30;60354;47.798;12.472;2022-09-01T04:21:02;13.82;89.01
72380;SHT30;60354;47.798;12.472;2022-09-01T04:23:33;13.90;89.19
72380;SHT30;60354;47.798;12.472;2022-09-01T04:26:11;13.90;89.02
72380;SHT30;60354;47.798;12.472;2022-09-01T04:28:42;13.83;89.17
72380;SHT30;60354;47.798;12.472;2022-09-01T04:31:13;13.86;89.27
72380;SHT30;60354;47.798;12.472;2022-09-01T04:33:42;13.78;89.00
72380;SHT30;60354;47.798;12.472;2022-09-01T04:36:22;13.76;89.31
72380;SHT30;60354;47.798;12.472;2022-09-01T04:38:55;13.76;89.36
72380;SHT30;60354;47.798;12.472;2022-09-01T04:41:25;13.76;89.40
72380;SHT30;60354;47.798;12.472;2022-09-01T04:43:52;13.72;89.43
72380;SHT30;60354;47.798;12.472;2022-09-01T04:46:21;13.69;89.46
72380;SHT30;60354;47.798;12.472;2022-09-01T04:48:47;13.64;89.99
72380;SHT30;60354;47.798;12.472;2022-09-01T04:51:14;13.66;89.91
72380;SHT30;60354;47.798;12.472;2022-09-01T04:53:55;13.75;90.05
72380;SHT30;60354;47.798;12.472;2022-09-01T04:56:22;13.82;89.84
72380;SHT30;60354;47.798;12.472;2022-09-01T04:59:02;13.86;89.45
72380;SHT30;60354;47.798;12.472;2022-09-01T05:01:32;13.89;89.22
72380;SHT30;60354;47.798;12.472;2022-09-01T05:04:09;13.98;89.41
72380;SHT30;60354;47.798;12.472;2022-09-01T05:06:40;14.06;88.81
72380;SHT30;60354;47.798;12.472;2022-09-01T05:09:07;14.09;88.68
72380;SHT30;60354;47.798;12.472;2022-09-01T05:11:43;14.12;88.07
72380;SHT30;60354;47.798;12.472;2022-09-01T05:14:20;14.12;88.44
72380;SHT30;60354;47.798;12.472;2022-09-01T05:16:47;14.19;88.60
72380;SHT30;60354;47.798;12.472;2022-09-01T05:19:13;14.20;89.04
72380;SHT30;60354;47.798;12.472;2022-09-01T05:21:44;14.19;88.43
72380;SHT30;60354;47.798;12.472;2022-09-01T05:24:17;14.33;87.92
72380;SHT30;60354;47.798;12.472;2022-09-01T05:26:44;14.33;88.27
72380;SHT30;60354;47.798;12.472;2022-09-01T05:29:12;14.36;87.53
72380;SHT30;60354;47.798;12.472;2022-09-01T05:31:42;14.33;88.10
72380;SHT30;60354;47.798;12.472;2022-09-01T05:34:08;14.34;87.37
72380;SHT30;60354;47.798;12.472;2022-09-01T05:36:36;14.37;87.63
72380;SHT30;60354;47.798;12.472;2022-09-01T05:39:06;14.43;87.51
72380;SHT30;60354;47.798;12.472;2022-09-01T05:41:34;14.48;87.22
72380;SHT30;60354;47.798;12.472;2022-09-01T05:44:05;14.60;87.12
72380;SHT30;60354;47.798;12.472;2022-09-01T05:46:34;14.57;87.75
72380;SHT30;60354;47.798;12.472;2022-09-01T05:49:01;14.70;87.28
72380;SHT30;60354;47.798;12.472;2022-09-01T05:51:29;14.73;86.99
72380;SHT30;60354;47.798;12.472;2022-09-01T05:53:58;14.80;87.24
72380;SHT30;60354;47.798;12.472;2022-09-01T05:56:26;14.83;87.29
72380;SHT30;60354;47.798;12.472;2022-09-01T05:58:53;14.85;86.19
72380;SHT30;60354;47.798;12.472;2022-09-01T06:01:23;14.85;86.84
72380;SHT30;60354;47.798;12.472;2022-09-01T06:03:53;14.84;86.53
72380;SHT30;60354;47.798;12.472;2022-09-01T06:06:26;14.98;86.15
72380;SHT30;60354;47.798;12.472;2022-09-01T06:08:52;15.11;84.77
72380;SHT30;60354;47.798;12.472;2022-09-01T06:11:25;15.05;85.17
72380;SHT30;60354;47.798;12.472;2022-09-01T06:13:52;15.25;84.75
72380;SHT30;60354;47.798;12.472;2022-09-01T06:16:22;15.46;83.58
72380;SHT30;60354;47.798;12.472;2022-09-01T06:18:50;15.32;84.12
72380;SHT30;60354;47.798;12.472;2022-09-01T06:21:18;15.40;84.17
72380;SHT30;60354;47.798;12.472;2022-09-01T06:23:44;15.65;82.87
72380;SHT30;60354;47.798;12.472;2022-09-01T06:28:44;15.79;82.83
72380;SHT30;60354;47.798;12.472;2022-09-01T06:31:10;16.22;80.43
72380;SHT30;60354;47.798;12.472;2022-09-01T06:33:37;16.52;80.45
72380;SHT30;60354;47.798;12.472;2022-09-01T06:36:04;16.99;79.28
72380;SHT30;60354;47.798;12.472;2022-09-01T06:38:29;17.16;78.22
72380;SHT30;60354;47.798;12.472;2022-09-01T06:41:00;17.00;77.92
72380;SHT30;60354;47.798;12.472;2022-09-01T06:43:25;17.26;76.91
72380;SHT30;60354;47.798;12.472;2022-09-01T06:45:55;17.50;74.60
72380;SHT30;60354;47.798;12.472;2022-09-01T06:48:22;17.75;74.69
72380;SHT30;60354;47.798;12.472;2022-09-01T06:50:50;17.75;73.39
72380;SHT30;60354;47.798;12.472;2022-09-01T06:53:16;17.82;74.62
72380;SHT30;60354;47.798;12.472;2022-09-01T06:55:47;17.78;73.85
72380;SHT30;60354;47.798;12.472;2022-09-01T06:58:14;17.73;73.93
72380;SHT30;60354;47.798;12.472;2022-09-01T07:00:44;17.63;74.37
72380;SHT30;60354;47.798;12.472;2022-09-01T07:03:12;16.96;76.31
72380;SHT30;60354;47.798;12.472;2022-09-01T07:06:08;17.09;76.39
72380;SHT30;60354;47.798;12.472;2022-09-01T07:09:00;16.78;77.50
72380;SHT30;60354;47.798;12.472;2022-09-01T07:11:31;16.76;78.11
72380;SHT30;60354;47.798;12.472;2022-09-01T07:14:00;16.66;79.08
72380;SHT30;60354;47.798;12.472;2022-09-01T07:16:35;16.62;79.16
72380;SHT30;60354;47.798;12.472;2022-09-01T07:19:06;16.66;78.35
72380;SHT30;60354;47.798;12.472;2022-09-01T07:21:44;16.72;78.97
72380;SHT30;60354;47.798;12.472;2022-09-01T07:24:12;16.52;78.40
72380;SHT30;60354;47.798;12.472;2022-09-01T07:27:02;16.44;78.41
72380;SHT30;60354;47.798;12.472;2022-09-01T07:29:27;16.41;77.72
72380;SHT30;60354;47.798;12.472;2022-09-01T07:31:53;16.55;79.86
72380;SHT30;60354;47.798;12.472;2022-09-01T07:34:20;16.58;79.84
72380;SHT30;60354;47.798;12.472;2022-09-01T07:36:47;16.47;77.76
72380;SHT30;60354;47.798;12.472;2022-09-01T07:39:14;16.37;79.95
72380;SHT30;60354;47.798;12.472;2022-09-01T07:41:46;16.01;81.82
72380;SHT30;60354;47.798;12.472;2022-09-01T07:44:38;16.06;81.75
72380;SHT30;60354;47.798;12.472;2022-09-01T07:47:26;15.85;82.96
72380;SHT30;60354;47.798;12.472;2022-09-01T07:49:54;15.85;82.69
72380;SHT30;60354;47.798;12.472;2022-09-01T07:52:20;15.91;82.64
72380;SHT30;60354;47.798;12.472;2022-09-01T07:54:46;15.98;82.21
72380;SHT30;60354;47.798;12.472;2022-09-01T07:57:12;16.06;82.41
72380;SHT30;60354;47.798;12.472;2022-09-01T07:59:41;16.17;81.47
72380;SHT30;60354;47.798;12.472;2022-09-01T08:02:17;16.29;82.88
72380;SHT30;60354;47.798;12.472;2022-09-01T08:04:43;16.21;80.61
72380;SHT30;60354;47.798;12.472;2022-09-01T08:07:10;16.14;81.37
72380;SHT30;60354;47.798;12.472;2022-09-01T08:09:36;15.82;81.64
72380;SHT30;60354;47.798;12.472;2022-09-01T08:12:04;15.77;82.33
72380;SHT30;60354;47.798;12.472;2022-09-01T08:14:33;15.82;82.86
72380;SHT30;60354;47.798;12.472;2022-09-01T08:16:58;15.87;82.46
72380;SHT30;60354;47.798;12.472;2022-09-01T08:19:24;15.89;81.59
72380;SHT30;60354;47.798;12.472;2022-09-01T08:22:16;15.93;82.93
72380;SHT30;60354;47.798;12.472;2022-09-01T08:24:54;15.89;82.40
72380;SHT30;60354;47.798;12.472;2022-09-01T08:27:20;16.11;81.51
72380;SHT30;60354;47.798;12.472;2022-09-01T08:29:46;16.25;81.83
72380;SHT30;60354;47.798;12.472;2022-09-01T08:32:13;16.48;80.92
72380;SHT30;60354;47.798;12.472;2022-09-01T08:34:38;16.52;80.57
72380;SHT30;60354;47.798;12.472;2022-09-01T08:37:05;16.69;80.16
72380;SHT30;60354;47.798;12.472;2022-09-01T08:39:32;16.71;79.93
72380;SHT30;60354;47.798;12.472;2022-09-01T08:44:45;16.75;77.98
72380;SHT30;60354;47.798;12.472;2022-09-01T08:47:17;16.86;77.73
72380;SHT30;60354;47.798;12.472;2022-09-01T08:49:44;17.20;77.58
72380;SHT30;60354;47.798;12.472;2022-09-01T08:55:46;17.48;76.81
72380;SHT30;60354;47.798;12.472;2022-09-01T08:58:15;17.95;75.76
72380;SHT30;60354;47.798;12.472;2022-09-01T09:01:27;18.10;72.26
72380;SHT30;60354;47.798;12.472;2022-09-01T09:07:17;18.37;71.97
72380;SHT30;60354;47.798;12.472;2022-09-01T09:09:50;18.36;73.77
72380;SHT30;60354;47.798;12.472;2022-09-01T09:17:46;17.87;74.06
72380;SHT30;60354;47.798;12.472;2022-09-01T09:20:14;18.28;72.89
72380;SHT30;60354;47.798;12.472;2022-09-01T09:22:48;18.56;71.29
72380;SHT30;60354;47.798;12.472;2022-09-01T09:25:16;18.59;72.36
72380;SHT30;60354;47.798;12.472;2022-09-01T09:27:44;19.49;71.02
72380;SHT30;60354;47.798;12.472;2022-09-01T09:43:37;17.79;72.94
72380;SHT30;60354;47.798;12.472;2022-09-01T09:49:21;17.95;73.17
72380;SHT30;60354;47.798;12.472;2022-09-01T09:51:52;17.95;72.26
72380;SHT30;60354;47.798;12.472;2022-09-01T09:57:10;18.61;71.53
72380;SHT30;60354;47.798;12.472;2022-09-01T10:02:34;19.25;70.68
72380;SHT30;60354;47.798;12.472;2022-09-01T10:07:55;19.35;68.65
72380;SHT30;60354;47.798;12.472;2022-09-01T10:13:02;19.31;67.36
72380;SHT30;60354;47.798;12.472;2022-09-01T10:15:29;19.51;67.70
72380;SHT30;60354;47.798;12.472;2022-09-01T10:18:29;19.41;68.45
72380;SHT30;60354;47.798;12.472;2022-09-01T10:21:03;19.01;68.09
72380;SHT30;60354;47.798;12.472;2022-09-01T10:23:33;18.96;68.83
72380;SHT30;60354;47.798;12.472;2022-09-01T10:26:18;18.83;67.49
72380;SHT30;60354;47.798;12.472;2022-09-01T10:31:33;19.03;66.18
72380;SHT30;60354;47.798;12.472;2022-09-01T10:34:01;19.10;66.90
72380;SHT30;60354;47.798;12.472;2022-09-01T10:36:27;19.39;68.61
72380;SHT30;60354;47.798;12.472;2022-09-01T10:38:53;19.45;67.01
72380;SHT30;60354;47.798;12.472;2022-09-01T10:44:21;19.00;66.73
72380;SHT30;60354;47.798;12.472;2022-09-01T10:46:55;19.07;65.28
72380;SHT30;60354;47.798;12.472;2022-09-01T10:51:54;19.69;65.71
72380;SHT30;60354;47.798;12.472;2022-09-01T10:54:51;20.01;65.08
72380;SHT30;60354;47.798;12.472;2022-09-01T10:57:34;20.28;61.47
72380;SHT30;60354;47.798;12.472;2022-09-01T11:08:44;19.27;66.84
72380;SHT30;60354;47.798;12.472;2022-09-01T11:11:50;19.10;66.27
72380;SHT30;60354;47.798;12.472;2022-09-01T11:14:21;19.03;67.87
72380;SHT30;60354;47.798;12.472;2022-09-01T11:33:25;20.34;64.09
72380;SHT30;60354;47.798;12.472;2022-09-01T11:41:55;19.41;66.16
72380;SHT30;60354;47.798;12.472;2022-09-01T11:47:07;19.22;66.94
72380;SHT30;60354;47.798;12.472;2022-09-01T11:49:51;19.31;65.85
72380;SHT30;60354;47.798;12.472;2022-09-01T11:52:18;19.42;65.69
72380;SHT30;60354;47.798;12.472;2022-09-01T11:54:44;19.31;64.16
72380;SHT30;60354;47.798;12.472;2022-09-01T11:57:37;19.65;65.06
72380;SHT30;60354;47.798;12.472;2022-09-01T12:00:10;19.65;63.05
72380;SHT30;60354;47.798;12.472;2022-09-01T12:02:48;20.07;62.84
72380;SHT30;60354;47.798;12.472;2022-09-01T12:05:34;20.13;63.03
72380;SHT30;60354;47.798;12.472;2022-09-01T12:08:18;20.10;62.38
72380;SHT30;60354;47.798;12.472;2022-09-01T12:10:44;20.44;61.88
72380;SHT30;60354;47.798;12.472;2022-09-01T12:13:21;20.10;62.91
72380;SHT30;60354;47.798;12.472;2022-09-01T12:15:59;19.73;61.90
72380;SHT30;60354;47.798;12.472;2022-09-01T12:18:27;19.66;63.24
72380;SHT30;60354;47.798;12.472;2022-09-01T12:20:56;19.41;63.71
72380;SHT30;60354;47.798;12.472;2022-09-01T12:23:27;19.21;64.61
72380;SHT30;60354;47.798;12.472;2022-09-01T12:25:55;19.15;64.93
72380;SHT30;60354;47.798;12.472;2022-09-01T12:28:29;19.08;65.05
72380;SHT30;60354;47.798;12.472;2022-09-01T12:31:04;19.42;63.70
72380;SHT30;60354;47.798;12.472;2022-09-01T12:33:31;19.89;63.82
72380;SHT30;60354;47.798;12.472;2022-09-01T12:38:39;20.41;61.30
72380;SHT30;60354;47.798;12.472;2022-09-01T12:41:34;20.78;59.44
72380;SHT30;60354;47.798;12.472;2022-09-01T12:47:04;21.02;59.41
72380;SHT30;60354;47.798;12.472;2022-09-01T12:49:42;20.47;59.42
72380;SHT30;60354;47.798;12.472;2022-09-01T12:57:30;20.09;61.80
72380;SHT30;60354;47.798;12.472;2022-09-01T13:02:36;20.18;62.51
72380;SHT30;60354;47.798;12.472;2022-09-01T13:05:36;20.55;61.28
72380;SHT30;60354;47.798;12.472;2022-09-01T13:08:06;20.68;59.93
72380;SHT30;60354;47.798;12.472;2022-09-01T13:10:35;20.88;59.57
72380;SHT30;60354;47.798;12.472;2022-09-01T13:13:03;21.12;57.94
72380;SHT30;60354;47.798;12.472;2022-09-01T13:15:29;21.40;59.75
72380;SHT30;60354;47.798;12.472;2022-09-01T13:17:55;21.15;58.43
72380;SHT30;60354;47.798;12.472;2022-09-01T13:20:21;21.10;58.08
72380;SHT30;60354;47.798;12.472;2022-09-01T13:22:47;21.19;57.17
72380;SHT30;60354;47.798;12.472;2022-09-01T13:25:16;21.22;57.19
72380;SHT30;60354;47.798;12.472;2022-09-01T13:27:43;20.94;57.81
72380;SHT30;60354;47.798;12.472;2022-09-01T13:30:10;20.79;58.02
72380;SHT30;60354;47.798;12.472;2022-09-01T13:32:37;21.08;57.85
72380;SHT30;60354;47.798;12.472;2022-09-01T13:35:03;20.96;55.34
72380;SHT30;60354;47.798;12.472;2022-09-01T13:37:29;21.22;56.55
72380;SHT30;60354;47.798;12.472;2022-09-01T13:39:54;21.10;54.75
72380;SHT30;60354;47.798;12.472;2022-09-01T13:42:20;21.02;55.51
72380;SHT30;60354;47.798;12.472;2022-09-01T13:44:46;21.09;54.37
72380;SHT30;60354;47.798;12.472;2022-09-01T13:47:12;21.02;53.50
72380;SHT30;60354;47.798;12.472;2022-09-01T13:49:37;21.16;53.47
72380;SHT30;60354;47.798;12.472;2022-09-01T13:52:03;21.19;54.20
72380;SHT30;60354;47.798;12.472;2022-09-01T13:54:29;21.00;54.06
72380;SHT30;60354;47.798;12.472;2022-09-01T13:56:55;20.87;55.24
72380;SHT30;60354;47.798;12.472;2022-09-01T13:59:20;20.88;54.07
72380;SHT30;60354;47.798;12.472;2022-09-01T14:01:46;21.00;55.42
72380;SHT30;60354;47.798;12.472;2022-09-01T14:04:11;21.18;55.34
72380;SHT30;60354;47.798;12.472;2022-09-01T14:06:42;21.09;54.88
72380;SHT30;60354;47.798;12.472;2022-09-01T14:09:12;20.99;55.28
72380;SHT30;60354;47.798;12.472;2022-09-01T14:11:38;21.05;54.46
72380;SHT30;60354;47.798;12.472;2022-09-01T14:14:04;20.95;53.27
72380;SHT30;60354;47.798;12.472;2022-09-01T14:16:31;20.84;53.27
72380;SHT30;60354;47.798;12.472;2022-09-01T14:18:57;20.72;53.19
72380;SHT30;60354;47.798;12.472;2022-09-01T14:21:27;20.64;54.25
72380;SHT30;60354;47.798;12.472;2022-09-01T14:23:52;20.71;53.59
72380;SHT30;60354;47.798;12.472;2022-09-01T14:26:18;20.65;54.71
72380;SHT30;60354;47.798;12.472;2022-09-01T14:28:45;20.77;53.80
72380;SHT30;60354;47.798;12.472;2022-09-01T14:31:14;20.77;54.71
72380;SHT30;60354;47.798;12.472;2022-09-01T14:33:40;20.65;55.67
72380;SHT30;60354;47.798;12.472;2022-09-01T14:36:07;20.43;57.10
72380;SHT30;60354;47.798;12.472;2022-09-01T14:38:33;19.99;55.39
72380;SHT30;60354;47.798;12.472;2022-09-01T14:41:00;19.80;55.96
72380;SHT30;60354;47.798;12.472;2022-09-01T14:43:26;19.82;56.64
72380;SHT30;60354;47.798;12.472;2022-09-01T14:46:03;19.87;55.72
72380;SHT30;60354;47.798;12.472;2022-09-01T14:48:32;19.94;55.61
72380;SHT30;60354;47.798;12.472;2022-09-01T14:50:57;20.01;56.02
72380;SHT30;60354;47.798;12.472;2022-09-01T14:53:24;19.97;56.24
72380;SHT30;60354;47.798;12.472;2022-09-01T14:55:49;20.13;57.56
72380;SHT30;60354;47.798;12.472;2022-09-01T14:58:15;20.21;56.70
72380;SHT30;60354;47.798;12.472;2022-09-01T15:00:41;20.09;56.22
72380;SHT30;60354;47.798;12.472;2022-09-01T15:03:07;20.05;55.55
72380;SHT30;60354;47.798;12.472;2022-09-01T15:05:35;20.06;55.59
72380;SHT30;60354;47.798;12.472;2022-09-01T15:08:00;19.96;55.77
72380;SHT30;60354;47.798;12.472;2022-09-01T15:10:26;19.99;56.04
72380;SHT30;60354;47.798;12.472;2022-09-01T15:12:56;19.96;55.99
72380;SHT30;60354;47.798;12.472;2022-09-01T15:15:22;19.93;57.59
72380;SHT30;60354;47.798;12.472;2022-09-01T15:17:48;20.10;57.27
72380;SHT30;60354;47.798;12.472;2022-09-01T15:20:14;20.07;57.19
72380;SHT30;60354;47.798;12.472;2022-09-01T15:23:00;20.16;55.89
72380;SHT30;60354;47.798;12.472;2022-09-01T15:25:25;20.13;54.61
72380;SHT30;60354;47.798;12.472;2022-09-01T15:27:51;20.20;54.07
72380;SHT30;60354;47.798;12.472;2022-09-01T15:30:17;20.28;55.50
72380;SHT30;60354;47.798;12.472;2022-09-01T15:32:46;20.30;55.40
72380;SHT30;60354;47.798;12.472;2022-09-01T15:35:12;20.27;52.48
72380;SHT30;60354;47.798;12.472;2022-09-01T15:37:38;20.20;53.34
72380;SHT30;60354;47.798;12.472;2022-09-01T15:40:04;20.17;54.14
72380;SHT30;60354;47.798;12.472;2022-09-01T15:42:32;19.96;55.28
72380;SHT30;60354;47.798;12.472;2022-09-01T15:45:01;19.87;55.20
72380;SHT30;60354;47.798;12.472;2022-09-01T15:47:28;19.83;55.20
72380;SHT30;60354;47.798;12.472;2022-09-01T15:49:54;19.87;55.76
72380;SHT30;60354;47.798;12.472;2022-09-01T15:52:19;19.69;55.95
72380;SHT30;60354;47.798;12.472;2022-09-01T15:54:45;19.65;56.71
72380;SHT30;60354;47.798;12.472;2022-09-01T15:57:10;19.59;58.11
72380;SHT30;60354;47.798;12.472;2022-09-01T15:59:36;19.56;59.04
72380;SHT30;60354;47.798;12.472;2022-09-01T16:02:04;19.55;59.59
72380;SHT30;60354;47.798;12.472;2022-09-01T16:04:31;19.42;59.56
72380;SHT30;60354;47.798;12.472;2022-09-01T16:06:58;19.31;59.73
72380;SHT30;60354;47.798;12.472;2022-09-01T16:09:24;19.17;60.64
72380;SHT30;60354;47.798;12.472;2022-09-01T16:11:51;19.18;61.05
72380;SHT30;60354;47.798;12.472;2022-09-01T16:14:17;19.22;61.15
72380;SHT30;60354;47.798;12.472;2022-09-01T16:17:06;19.19;61.27
72380;SHT30;60354;47.798;12.472;2022-09-01T16:24:46;19.04;58.48
72380;SHT30;60354;47.798;12.472;2022-09-01T16:27:18;19.04;59.59
72380;SHT30;60354;47.798;12.472;2022-09-01T16:30:12;18.94;59.48
72380;SHT30;60354;47.798;12.472;2022-09-01T16:32:44;18.94;58.78
72380;SHT30;60354;47.798;12.472;2022-09-01T16:35:10;18.90;59.47
72380;SHT30;60354;47.798;12.472;2022-09-01T16:43:00;18.86;59.81
72380;SHT30;60354;47.798;12.472;2022-09-01T16:48:06;18.67;60.80
72380;SHT30;60354;47.798;12.472;2022-09-01T16:50:42;18.60;60.21
72380;SHT30;60354;47.798;12.472;2022-09-01T16:53:45;18.55;60.19
72380;SHT30;60354;47.798;12.472;2022-09-01T16:59:18;18.37;60.17
72380;SHT30;60354;47.798;12.472;2022-09-01T17:05:18;18.25;59.41
72380;SHT30;60354;47.798;12.472;2022-09-01T17:07:54;18.25;59.40
72380;SHT30;60354;47.798;12.472;2022-09-01T17:10:42;18.08;60.09
72380;SHT30;60354;47.798;12.472;2022-09-01T17:13:16;18.01;60.13
72380;SHT30;60354;47.798;12.472;2022-09-01T17:15:51;18.02;60.86
72380;SHT30;60354;47.798;12.472;2022-09-01T17:18:31;17.89;61.01
72380;SHT30;60354;47.798;12.472;2022-09-01T17:21:02;17.81;60.67
72380;SHT30;60354;47.798;12.472;2022-09-01T17:23:37;17.78;61.05
72380;SHT30;60354;47.798;12.472;2022-09-01T17:26:31;17.70;61.17
72380;SHT30;60354;47.798;12.472;2022-09-01T17:29:03;17.68;60.98
72380;SHT30;60354;47.798;12.472;2022-09-01T17:31:54;17.70;61.20
72380;SHT30;60354;47.798;12.472;2022-09-01T17:34:48;17.61;61.56
72380;SHT30;60354;47.798;12.472;2022-09-01T17:37:36;17.51;61.72
72380;SHT30;60354;47.798;12.472;2022-09-01T17:40:25;17.46;62.19